Time;durP1;ratioP1;P1;durP2;ratioP2;P2;SDS_P1;SDS_P2;PMS_P1;PMS_P2;Temp;Humidity;BMP_temperature;BMP_pressure;BME280_temperature;BME280_humidity;BME280_pressure;Samples;Min_cycle;Max_cycle;Signal;HPM_P1;HPM_P2
2022/11/03 00:00:16;;;;;;;;;;;5.60;99.90;;;;;;5002728;28;19926;-74
2022/11/03 00:02:47;;;;;;;;;;;5.60;99.90;;;;;;4988952;28;19925;-74
2022/11/03 00:08:00;;;;;;;;;;;5.60;99.90;;;;;;5012527;28;19926;-74
2022/11/03 00:10:27;;;;;;;;;;;5.50;99.90;;;;;;5010094;28;19996;-76
2022/11/03 00:12:53;;;;;;;;;;;5.50;99.90;;;;;;4990267;28;19929;-74
2022/11/03 00:15:25;;;;;;;;;;;5.50;99.90;;;;;;4994380;28;19926;-74
2022/11/03 00:17:51;;;;;;;;;;;5.50;99.90;;;;;;4987557;28;19926;-75
2022/11/03 00:20:23;;;;;;;;;;;5.50;99.90;;;;;;4973066;28;20376;-75
2022/11/03 00:22:49;;;;;;;;;;;5.40;99.90;;;;;;4994899;28;19925;-75
2022/11/03 00:25:21;;;;;;;;;;;5.40;99.90;;;;;;4994768;28;19982;-74
2022/11/03 00:27:53;;;;;;;;;;;5.40;99.90;;;;;;4975093;28;19937;-74
2022/11/03 00:30:24;;;;;;;;;;;5.40;99.90;;;;;;4976920;28;19980;-73
2022/11/03 00:32:51;;;;;;;;;;;5.50;99.90;;;;;;4992083;28;19925;-73
2022/11/03 00:35:22;;;;;;;;;;;5.50;99.90;;;;;;4988895;28;20586;-73
2022/11/03 00:37:54;;;;;;;;;;;5.40;99.90;;;;;;4976999;28;20343;-75
2022/11/03 00:40:25;;;;;;;;;;;5.40;99.90;;;;;;5008367;28;19930;-74
2022/11/03 00:42:57;;;;;;;;;;;5.30;99.90;;;;;;4976895;28;19933;-73
2022/11/03 00:45:28;;;;;;;;;;;5.40;99.90;;;;;;4978932;28;19929;-73
2022/11/03 00:50:50;;;;;;;;;;;5.30;99.90;;;;;;5008398;28;20467;-75
2022/11/03 00:53:22;;;;;;;;;;;5.30;99.90;;;;;;5005689;28;19933;-73
2022/11/03 00:55:54;;;;;;;;;;;5.30;99.90;;;;;;5010684;28;20712;-72
2022/11/03 00:58:26;;;;;;;;;;;5.30;99.90;;;;;;4993066;28;20663;-75
2022/11/03 01:01:01;;;;;;;;;;;5.30;99.90;;;;;;4991603;28;19925;-75
2022/11/03 01:03:35;;;;;;;;;;;5.30;99.90;;;;;;4992819;28;19929;-74
2022/11/03 01:09:01;;;;;;;;;;;5.30;99.90;;;;;;4991758;28;19932;-74
2022/11/03 01:11:45;;;;;;;;;;;5.20;99.90;;;;;;4994083;28;20292;-75
2022/11/03 01:14:16;;;;;;;;;;;5.20;99.90;;;;;;5004212;28;19936;-74
2022/11/03 01:16:48;;;;;;;;;;;5.20;99.90;;;;;;4991705;28;19937;-74
2022/11/03 01:19:15;;;;;;;;;;;5.20;99.90;;;;;;4992481;28;19983;-74
2022/11/03 01:21:46;;;;;;;;;;;5.10;99.90;;;;;;4994101;28;20396;-73
2022/11/03 01:24:13;;;;;;;;;;;5.10;99.90;;;;;;4982817;28;19936;-74
2022/11/03 01:26:44;;;;;;;;;;;5.10;99.90;;;;;;4993129;28;19984;-74
2022/11/03 01:29:16;;;;;;;;;;;5.00;99.90;;;;;;4986352;28;19929;-74
2022/11/03 01:31:43;;;;;;;;;;;5.10;99.90;;;;;;4975926;28;19983;-74
2022/11/03 01:34:14;;;;;;;;;;;5.10;99.90;;;;;;4984062;28;20281;-74
2022/11/03 01:36:41;;;;;;;;;;;5.10;99.90;;;;;;4992541;28;19965;-74
2022/11/03 01:39:11;;;;;;;;;;;5.10;99.90;;;;;;4977366;28;20384;-75
2022/11/03 01:41:43;;;;;;;;;;;5.00;99.90;;;;;;4977159;28;19929;-76
2022/11/03 01:44:10;;;;;;;;;;;5.00;99.90;;;;;;4990643;28;19925;-76
2022/11/03 01:46:41;;;;;;;;;;;4.90;99.90;;;;;;4974059;28;20025;-76
2022/11/03 01:49:11;;;;;;;;;;;4.90;99.90;;;;;;4989457;28;20907;-75
2022/11/03 01:51:43;;;;;;;;;;;4.90;99.90;;;;;;4976291;28;19991;-76
2022/11/03 01:54:18;;;;;;;;;;;4.90;99.90;;;;;;5010412;28;20478;-76
2022/11/03 01:56:50;;;;;;;;;;;4.90;99.90;;;;;;4990794;28;19995;-75
2022/11/03 01:59:19;;;;;;;;;;;4.80;99.90;;;;;;4999953;28;20015;-73
2022/11/03 02:01:51;;;;;;;;;;;4.80;99.90;;;;;;4987127;28;19963;-74
2022/11/03 02:04:25;;;;;;;;;;;4.90;99.90;;;;;;4974349;28;19925;-74
2022/11/03 02:07:05;;;;;;;;;;;4.90;99.90;;;;;;4991685;28;20824;-74
2022/11/03 02:09:37;;;;;;;;;;;4.80;99.90;;;;;;4969599;28;19976;-74
2022/11/03 02:12:07;;;;;;;;;;;4.90;99.90;;;;;;4991603;28;20343;-75
2022/11/03 02:14:42;;;;;;;;;;;4.80;99.90;;;;;;4989033;28;19947;-75
2022/11/03 02:17:15;;;;;;;;;;;4.80;99.90;;;;;;5007416;28;19925;-75
2022/11/03 02:19:48;;;;;;;;;;;4.80;99.90;;;;;;4973784;28;19926;-74
2022/11/03 02:22:23;;;;;;;;;;;4.90;99.90;;;;;;4992047;28;19926;-76
2022/11/03 02:25:13;;;;;;;;;;;4.90;99.90;;;;;;5009672;28;19987;-76
2022/11/03 02:27:39;;;;;;;;;;;4.80;99.90;;;;;;4990973;28;20449;-74
2022/11/03 02:30:06;;;;;;;;;;;4.80;99.90;;;;;;4973277;28;19930;-74
2022/11/03 02:32:44;;;;;;;;;;;4.80;99.90;;;;;;4991233;28;19940;-74
2022/11/03 02:35:15;;;;;;;;;;;4.80;99.90;;;;;;4989602;28;19933;-75
2022/11/03 02:37:50;;;;;;;;;;;4.80;99.90;;;;;;5002335;28;19937;-75
2022/11/03 02:40:36;;;;;;;;;;;4.70;99.90;;;;;;4984002;28;20300;-75
2022/11/03 02:43:08;;;;;;;;;;;4.70;99.90;;;;;;4991770;28;20400;-74
2022/11/03 02:45:41;;;;;;;;;;;4.70;99.90;;;;;;4991678;28;19980;-74
2022/11/03 02:48:14;;;;;;;;;;;4.70;99.90;;;;;;5009368;28;19929;-74
2022/11/03 02:50:46;;;;;;;;;;;4.70;99.90;;;;;;5003569;28;19972;-74
2022/11/03 02:53:18;;;;;;;;;;;4.70;99.90;;;;;;4966842;28;19984;-75
2022/11/03 02:55:49;;;;;;;;;;;4.60;99.90;;;;;;4996646;28;19948;-76
2022/11/03 02:58:24;;;;;;;;;;;4.60;99.90;;;;;;5009505;28;19939;-73
2022/11/03 03:01:13;;;;;;;;;;;4.60;99.90;;;;;;4972668;28;19988;-73
2022/11/03 03:03:43;;;;;;;;;;;4.50;99.90;;;;;;5009341;28;19933;-74
2022/11/03 03:06:19;;;;;;;;;;;4.40;99.90;;;;;;4991249;28;20373;-74
2022/11/03 03:08:56;;;;;;;;;;;4.40;99.90;;;;;;4988605;28;20354;-74
2022/11/03 03:11:38;;;;;;;;;;;4.30;99.90;;;;;;4991399;28;19934;-74
2022/11/03 03:14:20;;;;;;;;;;;4.30;99.90;;;;;;4992147;28;19999;-74
2022/11/03 03:17:10;;;;;;;;;;;4.20;99.90;;;;;;4991058;28;19933;-74
2022/11/03 03:19:47;;;;;;;;;;;4.20;99.90;;;;;;4968342;28;19929;-76
2022/11/03 03:22:23;;;;;;;;;;;4.20;99.90;;;;;;4975891;28;20909;-74
2022/11/03 03:24:52;;;;;;;;;;;4.10;99.90;;;;;;4975194;28;20007;-74
2022/11/03 03:27:25;;;;;;;;;;;4.10;99.90;;;;;;4989154;28;19925;-76
2022/11/03 03:30:04;;;;;;;;;;;4.10;99.90;;;;;;4981899;28;19926;-74
2022/11/03 03:32:38;;;;;;;;;;;4.10;99.90;;;;;;4971432;28;20342;-74
2022/11/03 03:35:13;;;;;;;;;;;4.10;99.90;;;;;;4991518;28;19953;-74
2022/11/03 03:37:41;;;;;;;;;;;4.10;99.90;;;;;;4989705;28;19926;-75
2022/11/03 03:40:15;;;;;;;;;;;4.00;99.90;;;;;;4989921;28;19971;-76
2022/11/03 03:42:48;;;;;;;;;;;3.90;99.90;;;;;;4991266;28;19934;-74
2022/11/03 03:45:15;;;;;;;;;;;3.90;99.90;;;;;;4990443;28;20122;-74
2022/11/03 03:47:42;;;;;;;;;;;3.90;99.90;;;;;;4983895;28;19961;-74
2022/11/03 03:50:09;;;;;;;;;;;3.90;99.90;;;;;;4993843;28;19932;-75
2022/11/03 03:52:36;;;;;;;;;;;3.90;99.90;;;;;;4994399;28;19926;-74
2022/11/03 03:55:03;;;;;;;;;;;3.90;99.90;;;;;;4978777;28;19929;-75
2022/11/03 03:57:34;;;;;;;;;;;3.90;99.90;;;;;;4974999;28;19929;-75
2022/11/03 04:00:07;;;;;;;;;;;3.90;99.90;;;;;;5002344;28;19926;-75
2022/11/03 04:02:37;;;;;;;;;;;3.80;99.90;;;;;;5012401;28;20020;-75
2022/11/03 04:05:09;;;;;;;;;;;3.80;99.90;;;;;;4986114;28;19980;-76
2022/11/03 04:07:48;;;;;;;;;;;3.80;99.90;;;;;;4994365;28;19929;-76
2022/11/03 04:10:21;;;;;;;;;;;3.80;99.90;;;;;;4976886;28;20014;-74
2022/11/03 04:24:30;;;;;;;;;;;3.80;99.90;;;;;;4933387;29;20435;-76
2022/11/03 04:27:12;;;;;;;;;;;3.80;99.90;;;;;;4918082;29;20382;-75
2022/11/03 04:29:43;;;;;;;;;;;3.90;99.90;;;;;;4964457;28;19984;-74
2022/11/03 04:32:15;;;;;;;;;;;4.00;99.90;;;;;;4995574;28;20299;-74
2022/11/03 04:34:47;;;;;;;;;;;4.00;99.90;;;;;;5012491;28;19979;-74
2022/11/03 04:37:19;;;;;;;;;;;4.10;99.90;;;;;;4994581;28;19929;-74
2022/11/03 04:39:50;;;;;;;;;;;4.10;99.90;;;;;;4976574;28;19984;-73
2022/11/03 04:42:20;;;;;;;;;;;4.10;99.90;;;;;;4994346;28;20458;-74
2022/11/03 04:44:48;;;;;;;;;;;4.10;99.90;;;;;;5012910;28;19976;-74
2022/11/03 04:47:19;;;;;;;;;;;4.10;99.90;;;;;;4989972;28;20300;-73
2022/11/03 04:49:51;;;;;;;;;;;4.20;99.90;;;;;;4996687;28;19925;-74
2022/11/03 04:52:23;;;;;;;;;;;4.20;99.90;;;;;;5007063;28;19976;-73
2022/11/03 04:54:51;;;;;;;;;;;4.20;99.90;;;;;;4993535;28;19929;-74
2022/11/03 04:57:26;;;;;;;;;;;4.20;99.90;;;;;;4994469;28;19929;-73
2022/11/03 04:59:58;;;;;;;;;;;4.20;99.90;;;;;;4994252;28;19932;-73
2022/11/03 05:02:29;;;;;;;;;;;4.20;99.90;;;;;;5010235;28;19926;-75
2022/11/03 05:05:08;;;;;;;;;;;4.20;99.90;;;;;;4993707;28;19932;-73
2022/11/03 05:07:40;;;;;;;;;;;4.20;99.90;;;;;;5001996;28;19933;-73
2022/11/03 05:10:14;;;;;;;;;;;4.10;99.90;;;;;;4974597;28;19925;-74
2022/11/03 05:12:46;;;;;;;;;;;4.20;99.90;;;;;;4993726;28;19925;-74
2022/11/03 05:15:30;;;;;;;;;;;4.20;99.90;;;;;;4994380;28;20329;-73
2022/11/03 05:17:58;;;;;;;;;;;4.20;99.90;;;;;;5008948;28;19934;-75
2022/11/03 05:20:45;;;;;;;;;;;4.20;99.90;;;;;;4992653;28;20380;-74
2022/11/03 05:23:17;;;;;;;;;;;4.20;99.90;;;;;;4992981;28;19929;-74
2022/11/03 05:25:45;;;;;;;;;;;4.20;99.90;;;;;;5011675;28;19968;-73
2022/11/03 05:28:16;;;;;;;;;;;4.20;99.90;;;;;;4982598;28;19930;-74
2022/11/03 05:30:48;;;;;;;;;;;4.20;99.90;;;;;;5010012;28;19986;-74
2022/11/03 05:33:19;;;;;;;;;;;4.20;99.90;;;;;;5010711;28;19929;-74
2022/11/03 05:35:46;;;;;;;;;;;4.20;99.90;;;;;;4977688;28;19925;-74
2022/11/03 05:38:14;;;;;;;;;;;4.20;99.90;;;;;;4990556;28;20469;-73
2022/11/03 05:40:48;;;;;;;;;;;4.20;99.90;;;;;;4987440;28;19942;-73
2022/11/03 05:43:20;;;;;;;;;;;4.20;99.90;;;;;;5004991;28;19976;-73
2022/11/03 05:45:53;;;;;;;;;;;4.20;99.90;;;;;;4993427;28;19960;-74
2022/11/03 05:48:43;;;;;;;;;;;4.20;99.90;;;;;;4994657;28;19925;-74
2022/11/03 05:51:20;;;;;;;;;;;4.20;99.90;;;;;;5011348;28;19925;-74
2022/11/03 05:53:56;;;;;;;;;;;4.10;99.90;;;;;;5005218;28;19933;-75
2022/11/03 05:56:23;;;;;;;;;;;4.00;99.90;;;;;;4989087;28;19930;-72
2022/11/03 05:58:52;;;;;;;;;;;4.00;99.90;;;;;;4993428;28;19925;-73
2022/11/03 06:01:27;;;;;;;;;;;4.10;99.90;;;;;;4992402;28;19979;-72
2022/11/03 06:03:54;;;;;;;;;;;4.10;99.90;;;;;;4989207;28;19980;-71
2022/11/03 06:06:33;;;;;;;;;;;4.10;99.90;;;;;;4989674;28;19933;-73
2022/11/03 06:09:11;;;;;;;;;;;4.10;99.90;;;;;;4987352;28;19981;-73
2022/11/03 06:11:44;;;;;;;;;;;4.10;99.90;;;;;;4991193;28;19956;-73
2022/11/03 06:14:18;;;;;;;;;;;4.10;99.90;;;;;;4988678;28;20012;-73
2022/11/03 06:17:06;;;;;;;;;;;4.10;99.90;;;;;;5011413;28;19929;-73
2022/11/03 06:19:37;;;;;;;;;;;4.10;99.90;;;;;;4997375;28;19930;-73
2022/11/03 06:22:20;;;;;;;;;;;4.10;99.90;;;;;;4997935;28;20461;-72
2022/11/03 06:24:57;;;;;;;;;;;4.00;99.90;;;;;;5008164;28;19964;-72
2022/11/03 06:27:25;;;;;;;;;;;4.10;99.90;;;;;;4992355;28;19932;-72
2022/11/03 06:30:00;;;;;;;;;;;4.00;99.90;;;;;;4991502;28;19979;-74
2022/11/03 06:32:32;;;;;;;;;;;4.10;99.90;;;;;;5009259;28;20871;-73
2022/11/03 06:35:08;;;;;;;;;;;4.00;99.90;;;;;;4986276;28;19925;-73
2022/11/03 06:37:40;;;;;;;;;;;4.00;99.90;;;;;;4982178;28;20371;-73
2022/11/03 06:40:15;;;;;;;;;;;4.00;99.90;;;;;;4975786;28;20465;-73
2022/11/03 06:42:46;;;;;;;;;;;3.90;99.90;;;;;;4991813;28;20374;-71
2022/11/03 06:45:24;;;;;;;;;;;3.90;99.90;;;;;;4992561;28;19983;-71
2022/11/03 06:47:56;;;;;;;;;;;4.00;99.90;;;;;;4987093;28;19929;-74
2022/11/03 06:50:29;;;;;;;;;;;4.00;99.90;;;;;;4988617;28;19989;-74
2022/11/03 06:53:02;;;;;;;;;;;4.00;99.90;;;;;;4990249;28;19984;-73
2022/11/03 06:55:35;;;;;;;;;;;4.00;99.90;;;;;;4976008;28;20299;-73
2022/11/03 06:58:13;;;;;;;;;;;4.00;99.90;;;;;;4992122;28;19929;-72
2022/11/03 07:00:45;;;;;;;;;;;4.00;99.90;;;;;;5009295;28;20308;-74
2022/11/03 07:03:20;;;;;;;;;;;4.00;99.90;;;;;;4991179;28;19926;-72
2022/11/03 07:06:03;;;;;;;;;;;4.10;99.90;;;;;;4991366;28;19930;-72
2022/11/03 07:08:38;;;;;;;;;;;4.10;99.90;;;;;;4989807;28;19925;-73
2022/11/03 07:11:17;;;;;;;;;;;4.10;99.90;;;;;;4975556;28;19984;-73
2022/11/03 07:13:51;;;;;;;;;;;4.20;99.90;;;;;;4988635;28;19926;-72
2022/11/03 07:16:24;;;;;;;;;;;4.80;99.90;;;;;;4991908;28;19936;-74
2022/11/03 07:18:57;;;;;;;;;;;4.90;99.90;;;;;;4987507;28;19957;-74
2022/11/03 07:21:29;;;;;;;;;;;4.80;99.90;;;;;;5005237;28;19980;-74
2022/11/03 07:24:03;;;;;;;;;;;4.70;99.90;;;;;;5012372;28;20060;-72
2022/11/03 07:26:31;;;;;;;;;;;4.70;99.90;;;;;;4982812;28;19925;-74
2022/11/03 07:28:58;;;;;;;;;;;4.60;99.90;;;;;;4990359;28;20064;-74
2022/11/03 07:31:25;;;;;;;;;;;4.60;99.90;;;;;;5013921;28;19929;-74
2022/11/03 07:33:56;;;;;;;;;;;4.50;99.90;;;;;;4996065;28;19925;-74
2022/11/03 07:36:30;;;;;;;;;;;4.50;99.90;;;;;;4979128;28;19934;-74
2022/11/03 07:39:02;;;;;;;;;;;4.50;99.90;;;;;;4994277;28;19926;-74
2022/11/03 07:41:31;;;;;;;;;;;4.50;99.90;;;;;;4992350;28;19941;-74
2022/11/03 07:44:04;;;;;;;;;;;4.50;99.90;;;;;;5010028;28;19983;-75
2022/11/03 07:46:36;;;;;;;;;;;4.50;99.90;;;;;;5006636;28;19933;-75
2022/11/03 07:49:14;;;;;;;;;;;4.60;99.90;;;;;;4992090;28;20496;-73
2022/11/03 07:51:46;;;;;;;;;;;4.70;99.90;;;;;;4992232;28;19925;-75
2022/11/03 07:54:13;;;;;;;;;;;4.70;99.90;;;;;;4994265;28;19925;-73
2022/11/03 07:56:47;;;;;;;;;;;4.60;99.90;;;;;;4991399;28;19930;-73
2022/11/03 07:59:41;;;;;;;;;;;4.60;99.90;;;;;;4995576;28;19976;-74
2022/11/03 08:02:16;;;;;;;;;;;4.70;99.90;;;;;;4999222;28;20304;-73
2022/11/03 08:04:48;;;;;;;;;;;4.70;99.90;;;;;;4995117;28;19925;-74
2022/11/03 08:07:15;;;;;;;;;;;4.80;99.90;;;;;;4995074;28;19935;-74
2022/11/03 08:09:47;;;;;;;;;;;4.80;99.90;;;;;;4983195;28;19956;-73
2022/11/03 08:12:19;;;;;;;;;;;4.90;99.90;;;;;;4981249;28;19925;-74
2022/11/03 08:14:50;;;;;;;;;;;4.90;99.90;;;;;;4998967;28;19925;-74
2022/11/03 08:17:17;;;;;;;;;;;5.00;99.90;;;;;;4993651;28;20496;-73
2022/11/03 08:19:48;;;;;;;;;;;5.10;99.90;;;;;;4993203;28;19925;-73
2022/11/03 08:22:15;;;;;;;;;;;5.10;99.90;;;;;;5011268;28;19925;-75
2022/11/03 08:24:46;;;;;;;;;;;5.20;99.90;;;;;;4995135;28;20391;-73
2022/11/03 08:27:18;;;;;;;;;;;5.20;99.90;;;;;;4994767;28;19930;-74
2022/11/03 08:29:45;;;;;;;;;;;5.20;99.90;;;;;;5012665;28;19933;-75
2022/11/03 08:32:11;;;;;;;;;;;5.20;99.90;;;;;;4994159;28;19956;-74
2022/11/03 08:34:43;;;;;;;;;;;5.30;99.90;;;;;;5002343;28;19926;-74
2022/11/03 08:37:14;;;;;;;;;;;5.40;99.90;;;;;;4982649;28;19933;-75
2022/11/03 08:39:46;;;;;;;;;;;5.50;99.90;;;;;;4995917;28;19929;-74
2022/11/03 08:42:17;;;;;;;;;;;5.40;99.90;;;;;;5010423;28;19926;-74
2022/11/03 08:44:44;;;;;;;;;;;5.40;99.90;;;;;;4978991;28;19929;-74
2022/11/03 08:47:15;;;;;;;;;;;5.40;99.90;;;;;;4992169;28;19925;-75
2022/11/03 08:49:47;;;;;;;;;;;5.40;99.90;;;;;;5011879;28;19985;-76
2022/11/03 08:52:20;;;;;;;;;;;5.50;99.90;;;;;;4978608;28;19925;-75
2022/11/03 08:54:47;;;;;;;;;;;5.60;99.90;;;;;;5012505;28;19926;-75
2022/11/03 08:57:18;;;;;;;;;;;5.50;99.90;;;;;;4993965;28;19925;-74
2022/11/03 08:59:51;;;;;;;;;;;5.50;99.90;;;;;;5012172;28;19925;-75
2022/11/03 09:02:23;;;;;;;;;;;5.50;99.90;;;;;;4986331;28;19995;-75
2022/11/03 09:04:55;;;;;;;;;;;5.50;99.90;;;;;;4993641;28;19980;-73
2022/11/03 09:07:26;;;;;;;;;;;5.50;99.90;;;;;;4981006;28;20308;-75
2022/11/03 09:09:58;;;;;;;;;;;5.60;99.90;;;;;;4991877;28;19926;-73
2022/11/03 09:12:29;;;;;;;;;;;5.70;99.90;;;;;;4982609;28;19987;-74
2022/11/03 09:15:02;;;;;;;;;;;5.80;99.90;;;;;;4987731;28;19984;-76
2022/11/03 09:17:34;;;;;;;;;;;5.80;99.90;;;;;;4995553;28;19929;-76
2022/11/03 09:20:06;;;;;;;;;;;5.90;99.90;;;;;;4994006;28;20403;-75
2022/11/03 09:22:37;;;;;;;;;;;5.90;99.90;;;;;;4994930;28;19975;-74
2022/11/03 09:25:04;;;;;;;;;;;6.00;99.90;;;;;;4996736;28;19953;-76
2022/11/03 09:27:36;;;;;;;;;;;6.00;99.90;;;;;;5011176;28;19980;-74
2022/11/03 09:30:07;;;;;;;;;;;6.10;99.90;;;;;;4988411;28;19929;-74
2022/11/03 09:32:39;;;;;;;;;;;6.20;99.90;;;;;;4976253;28;20392;-75
2022/11/03 09:35:13;;;;;;;;;;;6.30;99.90;;;;;;4992765;28;20539;-73
2022/11/03 09:37:44;;;;;;;;;;;6.30;99.90;;;;;;5011023;28;19929;-75
2022/11/03 09:40:17;;;;;;;;;;;6.30;99.90;;;;;;4973686;28;19926;-72
2022/11/03 09:42:49;;;;;;;;;;;6.30;99.90;;;;;;4978043;28;20576;-74
2022/11/03 09:45:20;;;;;;;;;;;6.40;99.90;;;;;;4993173;28;19968;-72
2022/11/03 09:47:49;;;;;;;;;;;6.40;99.90;;;;;;4993008;28;20286;-72
2022/11/03 09:50:21;;;;;;;;;;;6.50;99.90;;;;;;4994512;28;19933;-73
2022/11/03 09:52:54;;;;;;;;;;;6.50;99.90;;;;;;4991170;28;19937;-73
2022/11/03 09:55:22;;;;;;;;;;;6.60;99.90;;;;;;5002001;28;20273;-73
2022/11/03 09:57:55;;;;;;;;;;;6.70;99.90;;;;;;4992696;28;19929;-72
2022/11/03 10:00:27;;;;;;;;;;;6.70;99.90;;;;;;4981230;28;20041;-73
2022/11/03 10:02:58;;;;;;;;;;;6.70;99.90;;;;;;5010928;28;19925;-72
2022/11/03 10:05:30;;;;;;;;;;;6.80;99.90;;;;;;5008047;28;19979;-73
2022/11/03 10:08:03;;;;;;;;;;;6.80;99.90;;;;;;5010682;28;19925;-73
2022/11/03 10:10:35;;;;;;;;;;;6.90;99.90;;;;;;4992144;28;19987;-72
2022/11/03 10:13:07;;;;;;;;;;;6.80;99.90;;;;;;4988566;28;19976;-72
2022/11/03 10:15:34;;;;;;;;;;;6.90;99.90;;;;;;4990400;28;20289;-71
2022/11/03 10:18:07;;;;;;;;;;;6.90;99.90;;;;;;5008413;28;20335;-74
2022/11/03 10:20:33;;;;;;;;;;;6.90;99.90;;;;;;5008383;28;20384;-74
2022/11/03 10:23:08;;;;;;;;;;;6.90;99.90;;;;;;4978116;28;19925;-73
2022/11/03 10:25:41;;;;;;;;;;;6.90;99.90;;;;;;4989132;28;20419;-73
2022/11/03 10:28:13;;;;;;;;;;;6.90;99.90;;;;;;4993380;28;19941;-74
2022/11/03 10:30:59;;;;;;;;;;;6.90;99.90;;;;;;4992964;28;19930;-72
2022/11/03 10:33:51;;;;;;;;;;;6.80;99.90;;;;;;4989525;28;19926;-71
2022/11/03 10:36:22;;;;;;;;;;;6.80;99.90;;;;;;4975305;28;19979;-73
2022/11/03 10:38:54;;;;;;;;;;;6.90;99.90;;;;;;5006995;28;19936;-74
2022/11/03 10:41:27;;;;;;;;;;;6.90;99.90;;;;;;5009134;28;19925;-73
2022/11/03 10:44:12;;;;;;;;;;;7.00;99.90;;;;;;4974965;28;19925;-74
2022/11/03 10:46:59;;;;;;;;;;;7.10;99.90;;;;;;4989023;28;20003;-75
2022/11/03 10:49:31;;;;;;;;;;;7.10;99.90;;;;;;4972309;28;19926;-75
2022/11/03 10:52:14;;;;;;;;;;;7.10;99.90;;;;;;4974570;28;19930;-75
2022/11/03 10:54:41;;;;;;;;;;;7.20;99.90;;;;;;4990284;28;20450;-75
2022/11/03 10:57:13;;;;;;;;;;;7.30;99.90;;;;;;4990084;28;19925;-75
2022/11/03 10:59:41;;;;;;;;;;;7.40;99.90;;;;;;4995194;28;19926;-75
2022/11/03 11:02:20;;;;;;;;;;;7.50;99.90;;;;;;4979385;28;19930;-73
2022/11/03 11:04:48;;;;;;;;;;;7.60;99.90;;;;;;4976484;28;20327;-73
2022/11/03 11:07:23;;;;;;;;;;;7.60;99.90;;;;;;4994558;28;20347;-74
2022/11/03 11:09:50;;;;;;;;;;;7.60;99.90;;;;;;4994987;28;19925;-74
2022/11/03 11:12:18;;;;;;;;;;;7.60;99.90;;;;;;4994993;28;19932;-74
2022/11/03 11:15:00;;;;;;;;;;;7.60;99.90;;;;;;4998408;28;19952;-73
2022/11/03 11:17:39;;;;;;;;;;;7.60;99.90;;;;;;5001860;28;19926;-72
2022/11/03 11:20:17;;;;;;;;;;;7.60;99.90;;;;;;4994924;28;19929;-74
2022/11/03 11:22:49;;;;;;;;;;;7.60;99.90;;;;;;4978001;28;20265;-73
2022/11/03 11:25:19;;;;;;;;;;;7.70;99.90;;;;;;5012579;28;19933;-74
2022/11/03 11:27:50;;;;;;;;;;;7.80;99.90;;;;;;4994226;28;19926;-73
2022/11/03 11:30:25;;;;;;;;;;;7.90;99.90;;;;;;4977678;28;19933;-73
2022/11/03 11:32:58;;;;;;;;;;;7.90;99.90;;;;;;4994925;28;19971;-73
2022/11/03 11:35:30;;;;;;;;;;;8.00;99.90;;;;;;4975280;28;20266;-74
2022/11/03 11:38:16;;;;;;;;;;;8.00;99.90;;;;;;4990909;28;19948;-74
2022/11/03 11:40:49;;;;;;;;;;;8.10;99.90;;;;;;4994255;28;20415;-73
2022/11/03 11:43:19;;;;;;;;;;;8.10;99.90;;;;;;4973783;28;20319;-75
2022/11/03 11:46:04;;;;;;;;;;;8.10;99.90;;;;;;4992197;28;20362;-76
2022/11/03 11:48:31;;;;;;;;;;;8.30;99.90;;;;;;4989378;28;19929;-75
2022/11/03 11:51:03;;;;;;;;;;;8.40;99.90;;;;;;4993983;28;19926;-74
2022/11/03 11:53:38;;;;;;;;;;;8.40;99.90;;;;;;4978283;28;19930;-74
2022/11/03 11:56:11;;;;;;;;;;;8.50;99.90;;;;;;4993725;28;19971;-74
2022/11/03 11:58:48;;;;;;;;;;;8.50;99.90;;;;;;4994075;28;19937;-73
2022/11/03 12:01:22;;;;;;;;;;;8.60;99.90;;;;;;5008013;28;20376;-74
2022/11/03 12:03:59;;;;;;;;;;;8.60;99.90;;;;;;4993854;28;20344;-73
2022/11/03 12:06:32;;;;;;;;;;;8.60;99.90;;;;;;4976439;28;19998;-75
2022/11/03 12:09:07;;;;;;;;;;;8.60;99.90;;;;;;5008113;28;20422;-75
2022/11/03 12:11:41;;;;;;;;;;;8.70;99.90;;;;;;4993457;28;19932;-74
2022/11/03 12:14:20;;;;;;;;;;;8.70;99.90;;;;;;5012617;28;19925;-72
2022/11/03 12:16:52;;;;;;;;;;;8.70;99.90;;;;;;4988951;28;19956;-70
2022/11/03 12:19:43;;;;;;;;;;;8.80;99.90;;;;;;4976825;28;19926;-72
2022/11/03 12:22:22;;;;;;;;;;;8.80;99.90;;;;;;4990127;28;19983;-72
2022/11/03 12:24:59;;;;;;;;;;;8.80;99.90;;;;;;4991728;28;19933;-71
2022/11/03 12:27:32;;;;;;;;;;;8.70;99.90;;;;;;4971580;28;19952;-74
2022/11/03 12:30:07;;;;;;;;;;;8.70;99.90;;;;;;4992916;28;19933;-71
2022/11/03 12:32:39;;;;;;;;;;;8.70;99.90;;;;;;4995075;28;20416;-71
2022/11/03 12:35:12;;;;;;;;;;;8.70;99.90;;;;;;4976721;28;20284;-74
2022/11/03 12:37:44;;;;;;;;;;;8.80;99.90;;;;;;4973850;28;19965;-74
2022/11/03 12:40:16;;;;;;;;;;;8.90;99.90;;;;;;5008644;28;19925;-72
2022/11/03 12:42:43;;;;;;;;;;;9.10;99.90;;;;;;5010786;28;19944;-73
2022/11/03 12:45:14;;;;;;;;;;;9.20;99.90;;;;;;4992085;28;20335;-73
2022/11/03 12:47:41;;;;;;;;;;;9.30;99.90;;;;;;4974302;28;19929;-73
2022/11/03 12:50:12;;;;;;;;;;;9.50;99.90;;;;;;4995173;28;20388;-75
2022/11/03 12:52:44;;;;;;;;;;;9.80;99.90;;;;;;5010525;28;19988;-73
2022/11/03 12:55:16;;;;;;;;;;;10.00;99.90;;;;;;4973570;28;19929;-75
2022/11/03 12:57:47;;;;;;;;;;;10.10;99.90;;;;;;5003512;28;19980;-75
2022/11/03 13:00:19;;;;;;;;;;;10.20;99.90;;;;;;4991804;28;19976;-72
2022/11/03 13:02:50;;;;;;;;;;;10.30;99.90;;;;;;4991276;28;19933;-74
2022/11/03 13:05:17;;;;;;;;;;;10.40;99.90;;;;;;5009928;28;19934;-73
2022/11/03 13:07:48;;;;;;;;;;;10.50;99.90;;;;;;5008314;28;20027;-73
2022/11/03 13:10:20;;;;;;;;;;;10.50;99.90;;;;;;4990399;28;19925;-73
2022/11/03 13:12:47;;;;;;;;;;;10.40;99.90;;;;;;5009240;28;19983;-75
2022/11/03 13:15:18;;;;;;;;;;;10.50;99.90;;;;;;4973350;28;19980;-74
2022/11/03 13:17:50;;;;;;;;;;;10.50;99.90;;;;;;5005376;28;19934;-74
2022/11/03 13:20:22;;;;;;;;;;;10.60;99.90;;;;;;5008624;28;20005;-74
2022/11/03 13:22:48;;;;;;;;;;;10.60;99.90;;;;;;4971772;28;19934;-73
2022/11/03 13:25:15;;;;;;;;;;;10.50;99.90;;;;;;4985958;28;20446;-72
2022/11/03 13:27:52;;;;;;;;;;;10.50;99.90;;;;;;4994484;28;19984;-73
2022/11/03 13:30:25;;;;;;;;;;;10.60;99.90;;;;;;4989821;28;19932;-72
2022/11/03 13:32:51;;;;;;;;;;;10.80;99.90;;;;;;4990832;28;20007;-73
2022/11/03 13:35:23;;;;;;;;;;;10.90;99.90;;;;;;4985577;28;20015;-74
2022/11/03 13:37:49;;;;;;;;;;;11.10;99.90;;;;;;5006789;28;20384;-73
2022/11/03 13:40:16;;;;;;;;;;;11.10;99.90;;;;;;4991066;28;20387;-74
2022/11/03 13:42:48;;;;;;;;;;;11.10;99.90;;;;;;5009749;28;19953;-72
2022/11/03 13:45:19;;;;;;;;;;;10.90;99.90;;;;;;4991496;28;20380;-73
2022/11/03 13:47:51;;;;;;;;;;;10.80;99.90;;;;;;4986132;28;19975;-74
2022/11/03 13:50:23;;;;;;;;;;;10.70;99.90;;;;;;4989337;28;19999;-74
2022/11/03 13:52:49;;;;;;;;;;;10.70;99.90;;;;;;4986749;28;19930;-72
2022/11/03 13:55:21;;;;;;;;;;;10.70;99.90;;;;;;4988540;28;19929;-74
2022/11/03 13:57:53;;;;;;;;;;;10.50;99.90;;;;;;4983431;28;19925;-73
2022/11/03 14:00:24;;;;;;;;;;;10.40;99.90;;;;;;4990818;28;20418;-74
2022/11/03 14:02:56;;;;;;;;;;;10.30;99.90;;;;;;5007248;28;19937;-74
2022/11/03 14:05:28;;;;;;;;;;;10.40;99.90;;;;;;4989049;28;19929;-76
2022/11/03 14:07:59;;;;;;;;;;;10.50;99.90;;;;;;4974762;28;19980;-74
2022/11/03 14:10:31;;;;;;;;;;;10.60;99.90;;;;;;5000132;28;19972;-74
2022/11/03 14:13:03;;;;;;;;;;;10.70;99.90;;;;;;4990957;28;19926;-74
2022/11/03 14:15:29;;;;;;;;;;;10.80;99.90;;;;;;4975122;28;19928;-75
2022/11/03 14:18:01;;;;;;;;;;;10.80;99.90;;;;;;4991956;28;19926;-76
2022/11/03 14:20:32;;;;;;;;;;;10.90;99.90;;;;;;4991205;28;19979;-73
2022/11/03 14:23:04;;;;;;;;;;;10.80;99.90;;;;;;4991878;28;19960;-75
2022/11/03 14:25:30;;;;;;;;;;;10.80;99.90;;;;;;4990229;28;20614;-75
2022/11/03 14:28:02;;;;;;;;;;;10.80;99.90;;;;;;4990122;28;19972;-73
2022/11/03 14:30:33;;;;;;;;;;;10.90;99.90;;;;;;4991158;28;19980;-73
2022/11/03 14:33:05;;;;;;;;;;;10.90;99.90;;;;;;4990725;28;19984;-73
2022/11/03 14:35:31;;;;;;;;;;;11.00;99.90;;;;;;4991379;28;19925;-75
2022/11/03 14:37:58;;;;;;;;;;;11.00;99.90;;;;;;4986784;28;19979;-74
2022/11/03 14:43:20;;;;;;;;;;;11.20;99.90;;;;;;4987854;28;20493;-74
2022/11/03 14:45:52;;;;;;;;;;;11.10;99.90;;;;;;4989451;28;19937;-75
2022/11/03 14:48:19;;;;;;;;;;;11.00;99.90;;;;;;4987252;28;19930;-73
2022/11/03 14:50:50;;;;;;;;;;;11.10;99.90;;;;;;4986591;28;19926;-73
2022/11/03 14:53:22;;;;;;;;;;;11.10;99.90;;;;;;5008055;28;19937;-73
2022/11/03 14:55:48;;;;;;;;;;;11.10;99.90;;;;;;5008097;28;20617;-74
2022/11/03 14:58:15;;;;;;;;;;;11.20;99.90;;;;;;4990829;28;19972;-73
2022/11/03 15:00:47;;;;;;;;;;;11.30;99.90;;;;;;4989930;28;19934;-71
2022/11/03 15:03:18;;;;;;;;;;;11.30;99.90;;;;;;4990878;28;19926;-74
2022/11/03 15:05:53;;;;;;;;;;;11.30;99.90;;;;;;5008525;28;20471;-74
2022/11/03 15:08:20;;;;;;;;;;;11.30;99.90;;;;;;4990331;28;19936;-74
2022/11/03 15:10:52;;;;;;;;;;;11.30;99.90;;;;;;4990625;28;20381;-73
2022/11/03 15:13:18;;;;;;;;;;;11.30;99.90;;;;;;5008232;28;19971;-73
2022/11/03 15:15:45;;;;;;;;;;;11.30;99.90;;;;;;4989587;28;19953;-72
2022/11/03 15:18:17;;;;;;;;;;;11.30;99.90;;;;;;4990434;28;19930;-74
2022/11/03 15:20:48;;;;;;;;;;;11.20;99.90;;;;;;4990598;28;19976;-72